sensor_id;sensor_type;location;lat;lon;timestamp;pressure;altitude;pressure_sealevel;temperature;humidity
69173;BME280;56280;49.662;8.408;2023-04-23T00:01:02;100048.44;;;14.84;89.67
69173;BME280;56280;49.662;8.408;2023-04-23T00:03:30;100062.84;;;14.91;90.07
69173;BME280;56280;49.662;8.408;2023-04-23T00:05:57;100057.81;;;14.88;90.23
69173;BME280;56280;49.662;8.408;2023-04-23T00:08:23;100061.63;;;14.77;90.39
69173;BME280;56280;49.662;8.408;2023-04-23T00:10:49;100059.09;;;14.76;89.69
69173;BME280;56280;49.662;8.408;2023-04-23T00:13:14;100054.59;;;14.76;89.92
69173;BME280;56280;49.662;8.408;2023-04-23T00:15:40;100045.56;;;14.77;89.97
69173;BME280;56280;49.662;8.408;2023-04-23T00:18:05;100007.97;;;14.36;89.46
69173;BME280;56280;49.662;8.408;2023-04-23T00:20:31;100048.38;;;14.68;89.80
69173;BME280;56280;49.662;8.408;2023-04-23T00:22:56;100052.75;;;14.69;89.26
69173;BME280;56280;49.662;8.408;2023-04-23T00:25:21;100061.09;;;14.74;89.78
69173;BME280;56280;49.662;8.408;2023-04-23T00:27:46;100048.69;;;14.65;90.45
69173;BME280;56280;49.662;8.408;2023-04-23T00:30:12;100056.72;;;14.65;89.92
69173;BME280;56280;49.662;8.408;2023-04-23T00:32:38;100047.72;;;14.66;90.29
69173;BME280;56280;49.662;8.408;2023-04-23T00:35:03;100035.34;;;14.65;90.55
69173;BME280;56280;49.662;8.408;2023-04-23T00:37:29;100058.75;;;14.71;90.97
69173;BME280;56280;49.662;8.408;2023-04-23T00:39:55;100050.31;;;14.57;91.44
69173;BME280;56280;49.662;8.408;2023-04-23T00:42:20;100044.41;;;14.46;91.04
69173;BME280;56280;49.662;8.408;2023-04-23T00:44:45;100063.78;;;14.39;90.89
69173;BME280;56280;49.662;8.408;2023-04-23T00:47:11;100057.59;;;14.39;91.35
69173;BME280;56280;49.662;8.408;2023-04-23T00:49:36;100030.91;;;14.13;91.27
69173;BME280;56280;49.662;8.408;2023-04-23T00:52:03;100054.00;;;13.96;92.11
69173;BME280;56280;49.662;8.408;2023-04-23T00:54:28;100068.00;;;14.16;92.25
69173;BME280;56280;49.662;8.408;2023-04-23T00:56:54;100045.94;;;14.14;91.01
69173;BME280;56280;49.662;8.408;2023-04-23T00:59:22;100056.47;;;14.15;91.57
69173;BME280;56280;49.662;8.408;2023-04-23T01:01:51;100036.88;;;14.07;90.92
69173;BME280;56280;49.662;8.408;2023-04-23T01:04:17;100053.16;;;14.21;91.13
69173;BME280;56280;49.662;8.408;2023-04-23T01:06:44;100053.69;;;14.25;90.91
69173;BME280;56280;49.662;8.408;2023-04-23T01:09:11;100052.34;;;14.29;91.05
69173;BME280;56280;49.662;8.408;2023-04-23T01:11:38;100056.03;;;14.28;90.66
69173;BME280;56280;49.662;8.408;2023-04-23T01:14:04;100041.97;;;14.26;91.02
69173;BME280;56280;49.662;8.408;2023-04-23T01:16:30;100047.31;;;14.26;91.07
69173;BME280;56280;49.662;8.408;2023-04-23T01:18:55;100041.91;;;14.10;90.49
69173;BME280;56280;49.662;8.408;2023-04-23T01:21:21;100042.88;;;14.09;90.75
69173;BME280;56280;49.662;8.408;2023-04-23T01:23:48;100061.81;;;14.15;90.78
69173;BME280;56280;49.662;8.408;2023-04-23T01:26:13;100070.16;;;14.12;91.28
69173;BME280;56280;49.662;8.408;2023-04-23T01:28:40;100057.69;;;13.95;90.49
69173;BME280;56280;49.662;8.408;2023-04-23T01:31:05;100054.94;;;13.86;91.02
69173;BME280;56280;49.662;8.408;2023-04-23T01:33:31;100072.69;;;13.96;91.38
69173;BME280;56280;49.662;8.408;2023-04-23T01:35:57;100073.84;;;13.93;90.75
69173;BME280;56280;49.662;8.408;2023-04-23T01:38:23;100068.41;;;14.03;90.96
69173;BME280;56280;49.662;8.408;2023-04-23T01:40:49;100069.53;;;14.00;90.75
69173;BME280;56280;49.662;8.408;2023-04-23T01:43:14;100064.25;;;14.09;90.86
69173;BME280;56280;49.662;8.408;2023-04-23T01:45:40;100076.47;;;14.11;90.17
69173;BME280;56280;49.662;8.408;2023-04-23T01:48:05;100075.91;;;13.99;90.06
69173;BME280;56280;49.662;8.408;2023-04-23T01:50:31;100071.38;;;14.00;90.76
69173;BME280;56280;49.662;8.408;2023-04-23T01:52:56;100069.25;;;14.03;90.50
69173;BME280;56280;49.662;8.408;2023-04-23T01:55:21;100050.19;;;13.98;90.56
69173;BME280;56280;49.662;8.408;2023-04-23T01:57:47;100060.50;;;14.19;90.56
69173;BME280;56280;49.662;8.408;2023-04-23T02:00:14;100076.75;;;14.34;90.58
69173;BME280;56280;49.662;8.408;2023-04-23T02:02:40;100069.25;;;14.30;90.14
69173;BME280;56280;49.662;8.408;2023-04-23T02:05:15;100069.25;;;14.03;89.71
69173;BME280;56280;49.662;8.408;2023-04-23T02:07:41;100084.47;;;14.11;90.36
69173;BME280;56280;49.662;8.408;2023-04-23T02:10:08;100088.53;;;14.15;90.42
69173;BME280;56280;49.662;8.408;2023-04-23T02:12:35;100092.97;;;14.07;89.96
69173;BME280;56280;49.662;8.408;2023-04-23T02:15:00;100072.47;;;13.89;89.52
69173;BME280;56280;49.662;8.408;2023-04-23T02:17:27;100090.75;;;14.02;90.19
69173;BME280;56280;49.662;8.408;2023-04-23T02:19:53;100093.31;;;13.85;90.02
69173;BME280;56280;49.662;8.408;2023-04-23T02:22:20;100095.84;;;13.87;89.96
69173;BME280;56280;49.662;8.408;2023-04-23T02:24:46;100087.34;;;13.92;89.84
69173;BME280;56280;49.662;8.408;2023-04-23T02:27:12;100087.09;;;14.03;90.10
69173;BME280;56280;49.662;8.408;2023-04-23T02:29:38;100083.44;;;14.04;90.51
69173;BME280;56280;49.662;8.408;2023-04-23T02:32:04;100072.91;;;14.02;89.83
69173;BME280;56280;49.662;8.408;2023-04-23T02:34:29;100078.56;;;13.99;90.11
69173;BME280;56280;49.662;8.408;2023-04-23T02:36:54;100081.72;;;13.95;89.82
69173;BME280;56280;49.662;8.408;2023-04-23T02:39:20;100082.03;;;13.92;90.29
69173;BME280;56280;49.662;8.408;2023-04-23T02:41:45;100070.22;;;13.76;89.68
69173;BME280;56280;49.662;8.408;2023-04-23T02:44:10;100081.13;;;13.83;89.47
69173;BME280;56280;49.662;8.408;2023-04-23T02:46:35;100091.50;;;14.12;90.06
69173;BME280;56280;49.662;8.408;2023-04-23T02:49:02;100086.22;;;13.94;89.57
69173;BME280;56280;49.662;8.408;2023-04-23T02:51:28;100091.78;;;14.01;89.48
69173;BME280;56280;49.662;8.408;2023-04-23T02:53:53;100075.16;;;13.89;89.13
69173;BME280;56280;49.662;8.408;2023-04-23T02:56:18;100060.25;;;13.78;89.12
69173;BME280;56280;49.662;8.408;2023-04-23T02:58:44;100080.34;;;13.91;88.87
69173;BME280;56280;49.662;8.408;2023-04-23T03:01:09;100092.50;;;14.11;89.24
69173;BME280;56280;49.662;8.408;2023-04-23T03:03:35;100081.50;;;14.14;89.21
69173;BME280;56280;49.662;8.408;2023-04-23T03:06:01;100093.75;;;14.25;88.94
69173;BME280;56280;49.662;8.408;2023-04-23T03:08:27;100074.47;;;14.13;88.18
69173;BME280;56280;49.662;8.408;2023-04-23T03:10:52;100084.56;;;14.28;88.17
69173;BME280;56280;49.662;8.408;2023-04-23T03:13:17;100092.94;;;14.33;88.04
69173;BME280;56280;49.662;8.408;2023-04-23T03:15:43;100088.88;;;14.20;88.37
69173;BME280;56280;49.662;8.408;2023-04-23T03:18:08;100094.13;;;14.30;87.89
69173;BME280;56280;49.662;8.408;2023-04-23T03:20:34;100098.84;;;14.36;87.26
69173;BME280;56280;49.662;8.408;2023-04-23T03:23:00;100082.88;;;14.18;87.37
69173;BME280;56280;49.662;8.408;2023-04-23T03:25:26;100090.03;;;14.18;87.30
69173;BME280;56280;49.662;8.408;2023-04-23T03:27:52;100091.25;;;14.23;87.84
69173;BME280;56280;49.662;8.408;2023-04-23T03:30:17;100093.22;;;14.21;87.49
69173;BME280;56280;49.662;8.408;2023-04-23T03:32:43;100084.84;;;14.16;87.70
69173;BME280;56280;49.662;8.408;2023-04-23T03:35:08;100085.91;;;14.23;87.99
69173;BME280;56280;49.662;8.408;2023-04-23T03:37:34;100088.22;;;14.18;87.07
69173;BME280;56280;49.662;8.408;2023-04-23T03:39:59;100086.16;;;14.12;87.87
69173;BME280;56280;49.662;8.408;2023-04-23T03:42:28;100073.28;;;14.08;87.52
69173;BME280;56280;49.662;8.408;2023-04-23T03:44:53;100064.88;;;13.76;87.28
69173;BME280;56280;49.662;8.408;2023-04-23T03:47:18;100078.38;;;13.93;87.80
69173;BME280;56280;49.662;8.408;2023-04-23T03:49:43;100091.47;;;14.04;88.16
69173;BME280;56280;49.662;8.408;2023-04-23T03:52:09;100093.56;;;14.18;88.16
69173;BME280;56280;49.662;8.408;2023-04-23T03:54:34;100098.91;;;14.18;88.18
69173;BME280;56280;49.662;8.408;2023-04-23T03:57:00;100080.94;;;14.02;87.32
69173;BME280;56280;49.662;8.408;2023-04-23T03:59:25;100079.03;;;13.95;87.06
69173;BME280;56280;49.662;8.408;2023-04-23T04:01:51;100097.00;;;14.11;87.71
69173;BME280;56280;49.662;8.408;2023-04-23T04:04:16;100085.41;;;14.02;87.01
69173;BME280;56280;49.662;8.408;2023-04-23T04:06:41;100092.09;;;13.98;86.81
69173;BME280;56280;49.662;8.408;2023-04-23T04:09:07;100070.97;;;13.86;86.89
69173;BME280;56280;49.662;8.408;2023-04-23T04:11:33;100067.53;;;13.76;86.63
69173;BME280;56280;49.662;8.408;2023-04-23T04:13:58;100092.66;;;13.83;86.53
69173;BME280;56280;49.662;8.408;2023-04-23T04:16:23;100090.47;;;13.61;86.81
69173;BME280;56280;49.662;8.408;2023-04-23T04:18:49;100091.34;;;13.70;86.89
69173;BME280;56280;49.662;8.408;2023-04-23T04:21:14;100098.47;;;13.61;86.63
69173;BME280;56280;49.662;8.408;2023-04-23T04:23:41;100107.22;;;13.53;86.40
69173;BME280;56280;49.662;8.408;2023-04-23T04:26:06;100099.84;;;13.47;87.30
69173;BME280;56280;49.662;8.408;2023-04-23T04:28:32;100097.78;;;13.59;87.33
69173;BME280;56280;49.662;8.408;2023-04-23T04:31:01;100094.81;;;13.44;87.18
69173;BME280;56280;49.662;8.408;2023-04-23T04:33:26;100079.06;;;13.23;87.36
69173;BME280;56280;49.662;8.408;2023-04-23T04:35:53;100098.41;;;13.25;87.86
69173;BME280;56280;49.662;8.408;2023-04-23T04:38:19;100094.16;;;13.32;88.19
69173;BME280;56280;49.662;8.408;2023-04-23T04:40:45;100085.59;;;13.38;87.53
69173;BME280;56280;49.662;8.408;2023-04-23T04:43:12;100102.03;;;13.52;87.17
69173;BME280;56280;49.662;8.408;2023-04-23T04:45:38;100083.59;;;13.40;87.40
69173;BME280;56280;49.662;8.408;2023-04-23T04:48:03;100094.47;;;13.65;86.81
69173;BME280;56280;49.662;8.408;2023-04-23T04:50:28;100093.13;;;13.61;86.22
69173;BME280;56280;49.662;8.408;2023-04-23T04:52:54;100079.09;;;13.59;86.49
69173;BME280;56280;49.662;8.408;2023-04-23T04:55:19;100082.16;;;13.64;85.94
69173;BME280;56280;49.662;8.408;2023-04-23T04:57:44;100087.63;;;13.62;85.77
69173;BME280;56280;49.662;8.408;2023-04-23T05:02:47;100095.19;;;13.67;86.51
69173;BME280;56280;49.662;8.408;2023-04-23T05:05:12;100094.03;;;13.70;86.55
69173;BME280;56280;49.662;8.408;2023-04-23T05:07:38;100104.31;;;13.82;86.75
69173;BME280;56280;49.662;8.408;2023-04-23T05:10:03;100110.50;;;13.83;86.34
69173;BME280;56280;49.662;8.408;2023-04-23T05:12:28;100108.06;;;13.90;86.07
69173;BME280;56280;49.662;8.408;2023-04-23T05:14:54;100091.09;;;13.81;85.98
69173;BME280;56280;49.662;8.408;2023-04-23T05:17:19;100109.84;;;13.89;86.06
69173;BME280;56280;49.662;8.408;2023-04-23T05:19:44;100070.16;;;13.68;85.52
69173;BME280;56280;49.662;8.408;2023-04-23T05:22:09;100105.22;;;13.91;84.71
69173;BME280;56280;49.662;8.408;2023-04-23T05:24:35;100095.53;;;13.90;85.30
69173;BME280;56280;49.662;8.408;2023-04-23T05:27:00;100114.94;;;14.00;85.35
69173;BME280;56280;49.662;8.408;2023-04-23T05:29:26;100112.69;;;14.06;84.91
69173;BME280;56280;49.662;8.408;2023-04-23T05:31:51;100113.97;;;14.01;84.66
69173;BME280;56280;49.662;8.408;2023-04-23T05:34:17;100113.19;;;14.09;84.39
69173;BME280;56280;49.662;8.408;2023-04-23T05:36:42;100091.81;;;14.09;84.80
69173;BME280;56280;49.662;8.408;2023-04-23T05:39:07;100104.25;;;14.18;84.86
69173;BME280;56280;49.662;8.408;2023-04-23T05:41:33;100096.75;;;14.22;84.63
69173;BME280;56280;49.662;8.408;2023-04-23T05:43:58;100110.03;;;14.40;83.97
69173;BME280;56280;49.662;8.408;2023-04-23T05:46:23;100102.44;;;14.27;84.13
69173;BME280;56280;49.662;8.408;2023-04-23T05:48:49;100106.09;;;14.26;83.23
69173;BME280;56280;49.662;8.408;2023-04-23T05:51:14;100108.25;;;14.22;82.80
69173;BME280;56280;49.662;8.408;2023-04-23T05:53:39;100120.44;;;14.17;83.18
69173;BME280;56280;49.662;8.408;2023-04-23T05:56:04;100097.94;;;14.01;83.36
69173;BME280;56280;49.662;8.408;2023-04-23T05:58:30;100107.22;;;14.15;83.29
69173;BME280;56280;49.662;8.408;2023-04-23T06:00:55;100111.97;;;14.56;83.59
69173;BME280;56280;49.662;8.408;2023-04-23T06:03:21;100110.00;;;14.92;84.35
69173;BME280;56280;49.662;8.408;2023-04-23T06:05:46;100118.38;;;15.06;83.35
69173;BME280;56280;49.662;8.408;2023-04-23T06:08:12;100093.63;;;15.04;82.53
69173;BME280;56280;49.662;8.408;2023-04-23T06:10:40;100115.09;;;15.28;81.39
69173;BME280;56280;49.662;8.408;2023-04-23T06:13:06;100110.91;;;15.34;80.41
69173;BME280;56280;49.662;8.408;2023-04-23T06:15:31;100118.16;;;15.66;81.12
69173;BME280;56280;49.662;8.408;2023-04-23T06:17:56;100106.44;;;15.76;79.44
69173;BME280;56280;49.662;8.408;2023-04-23T06:20:22;100093.22;;;16.07;79.89
69173;BME280;56280;49.662;8.408;2023-04-23T06:22:47;100107.00;;;16.60;78.23
69173;BME280;56280;49.662;8.408;2023-04-23T06:25:12;100094.66;;;16.82;77.41
69173;BME280;56280;49.662;8.408;2023-04-23T06:27:37;100077.50;;;17.00;74.69
69173;BME280;56280;49.662;8.408;2023-04-23T06:30:03;100082.75;;;17.47;74.66
69173;BME280;56280;49.662;8.408;2023-04-23T06:32:29;100079.50;;;17.75;73.66
69173;BME280;56280;49.662;8.408;2023-04-23T06:34:54;100082.94;;;18.07;72.27
69173;BME280;56280;49.662;8.408;2023-04-23T06:37:19;100060.97;;;18.03;69.01
69173;BME280;56280;49.662;8.408;2023-04-23T06:39:45;100082.47;;;18.33;69.73
69173;BME280;56280;49.662;8.408;2023-04-23T06:42:10;100064.88;;;18.46;68.60
69173;BME280;56280;49.662;8.408;2023-04-23T06:44:35;100075.59;;;18.90;67.30
69173;BME280;56280;49.662;8.408;2023-04-23T06:47:00;100051.53;;;19.04;66.30
69173;BME280;56280;49.662;8.408;2023-04-23T06:49:26;100071.81;;;19.21;65.82
69173;BME280;56280;49.662;8.408;2023-04-23T06:51:51;100056.53;;;19.07;65.76
69173;BME280;56280;49.662;8.408;2023-04-23T06:54:16;100059.81;;;19.45;65.04
69173;BME280;56280;49.662;8.408;2023-04-23T06:56:42;100061.78;;;19.80;63.97
69173;BME280;56280;49.662;8.408;2023-04-23T06:59:07;100063.91;;;19.84;61.27
69173;BME280;56280;49.662;8.408;2023-04-23T07:01:33;100062.81;;;19.57;62.71
69173;BME280;56280;49.662;8.408;2023-04-23T07:03:59;100053.72;;;19.80;62.24
69173;BME280;56280;49.662;8.408;2023-04-23T07:06:25;100066.09;;;20.31;61.78
69173;BME280;56280;49.662;8.408;2023-04-23T07:08:51;100073.03;;;20.47;59.69
69173;BME280;56280;49.662;8.408;2023-04-23T07:11:17;100066.13;;;20.66;59.88
69173;BME280;56280;49.662;8.408;2023-04-23T07:13:42;100066.38;;;20.43;58.17
69173;BME280;56280;49.662;8.408;2023-04-23T07:16:07;100066.84;;;20.18;57.61
69173;BME280;56280;49.662;8.408;2023-04-23T07:18:33;100055.63;;;19.86;58.25
69173;BME280;56280;49.662;8.408;2023-04-23T07:20:58;100038.31;;;19.52;58.99
69173;BME280;56280;49.662;8.408;2023-04-23T07:23:23;100055.50;;;19.51;59.35
69173;BME280;56280;49.662;8.408;2023-04-23T07:25:49;100042.41;;;19.70;59.12
69173;BME280;56280;49.662;8.408;2023-04-23T07:28:14;100051.44;;;19.83;58.94
69173;BME280;56280;49.662;8.408;2023-04-23T07:30:39;100038.88;;;20.19;58.13
69173;BME280;56280;49.662;8.408;2023-04-23T07:33:04;100055.75;;;20.34;57.63
69173;BME280;56280;49.662;8.408;2023-04-23T07:35:30;100048.38;;;20.15;57.97
69173;BME280;56280;49.662;8.408;2023-04-23T07:37:55;100028.81;;;20.06;57.04
69173;BME280;56280;49.662;8.408;2023-04-23T07:40:22;100050.03;;;20.57;59.19
69173;BME280;56280;49.662;8.408;2023-04-23T07:42:49;100031.28;;;20.77;57.40
69173;BME280;56280;49.662;8.408;2023-04-23T07:45:14;100017.81;;;20.98;56.66
69173;BME280;56280;49.662;8.408;2023-04-23T07:47:40;100037.25;;;21.55;54.74
69173;BME280;56280;49.662;8.408;2023-04-23T07:50:06;100025.56;;;21.94;53.59
69173;BME280;56280;49.662;8.408;2023-04-23T07:52:31;100041.72;;;22.41;53.39
69173;BME280;56280;49.662;8.408;2023-04-23T07:54:56;100032.03;;;22.79;52.75
69173;BME280;56280;49.662;8.408;2023-04-23T07:57:22;100035.47;;;22.92;50.87
69173;BME280;56280;49.662;8.408;2023-04-23T07:59:47;100015.88;;;22.52;49.97
69173;BME280;56280;49.662;8.408;2023-04-23T08:02:12;100007.41;;;22.21;50.16
69173;BME280;56280;49.662;8.408;2023-04-23T08:04:38;100023.34;;;21.64;50.42
69173;BME280;56280;49.662;8.408;2023-04-23T08:07:03;100025.53;;;21.07;51.88
69173;BME280;56280;49.662;8.408;2023-04-23T08:09:28;100004.53;;;20.48;53.46
69173;BME280;56280;49.662;8.408;2023-04-23T08:11:54;100018.00;;;20.41;54.67
69173;BME280;56280;49.662;8.408;2023-04-23T08:14:19;100024.47;;;20.47;56.02
69173;BME280;56280;49.662;8.408;2023-04-23T08:16:44;100021.44;;;20.63;54.35
69173;BME280;56280;49.662;8.408;2023-04-23T08:19:10;100015.97;;;20.98;53.61
69173;BME280;56280;49.662;8.408;2023-04-23T08:21:39;99998.69;;;20.86;52.80
69173;BME280;56280;49.662;8.408;2023-04-23T08:24:05;100018.94;;;21.37;52.13
69173;BME280;56280;49.662;8.408;2023-04-23T08:26:33;99959.69;;;21.42;51.41
69173;BME280;56280;49.662;8.408;2023-04-23T08:28:58;99977.34;;;21.84;51.50
69173;BME280;56280;49.662;8.408;2023-04-23T08:31:27;100005.06;;;22.52;51.21
69173;BME280;56280;49.662;8.408;2023-04-23T08:33:52;100001.59;;;22.25;48.91
69173;BME280;56280;49.662;8.408;2023-04-23T08:36:18;100011.00;;;22.02;48.99
69173;BME280;56280;49.662;8.408;2023-04-23T08:38:43;99980.47;;;21.81;49.93
69173;BME280;56280;49.662;8.408;2023-04-23T08:41:10;100017.94;;;21.64;49.27
69173;BME280;56280;49.662;8.408;2023-04-23T08:43:43;100006.06;;;21.72;49.96
69173;BME280;56280;49.662;8.408;2023-04-23T08:46:11;99997.34;;;21.57;50.40
69173;BME280;56280;49.662;8.408;2023-04-23T08:48:39;99992.28;;;21.13;50.64
69173;BME280;56280;49.662;8.408;2023-04-23T08:51:04;99991.44;;;20.93;51.15
69173;BME280;56280;49.662;8.408;2023-04-23T08:53:32;99994.16;;;21.06;51.47
69173;BME280;56280;49.662;8.408;2023-04-23T08:55:58;99995.66;;;21.16;51.91
69173;BME280;56280;49.662;8.408;2023-04-23T08:58:23;99983.19;;;21.41;51.60
69173;BME280;56280;49.662;8.408;2023-04-23T09:00:52;99994.63;;;21.83;50.92
69173;BME280;56280;49.662;8.408;2023-04-23T09:03:18;99990.47;;;21.81;50.07
69173;BME280;56280;49.662;8.408;2023-04-23T09:05:45;99987.34;;;21.84;50.56
69173;BME280;56280;49.662;8.408;2023-04-23T09:08:11;99989.84;;;21.85;50.65
69173;BME280;56280;49.662;8.408;2023-04-23T09:10:41;99987.78;;;21.61;49.33
69173;BME280;56280;49.662;8.408;2023-04-23T09:13:07;99988.22;;;21.51;50.98
69173;BME280;56280;49.662;8.408;2023-04-23T09:15:33;99969.06;;;21.59;50.19
69173;BME280;56280;49.662;8.408;2023-04-23T09:18:07;99961.75;;;21.26;49.58
69173;BME280;56280;49.662;8.408;2023-04-23T09:20:32;99989.44;;;21.82;49.93
69173;BME280;56280;49.662;8.408;2023-04-23T09:22:57;99969.03;;;21.79;48.67
69173;BME280;56280;49.662;8.408;2023-04-23T09:25:23;99893.84;;;21.09;49.42
69173;BME280;56280;49.662;8.408;2023-04-23T09:27:51;99949.53;;;21.71;50.10
69173;BME280;56280;49.662;8.408;2023-04-23T09:30:17;99943.06;;;21.72;49.70
69173;BME280;56280;49.662;8.408;2023-04-23T09:32:44;99966.31;;;21.99;47.51
69173;BME280;56280;49.662;8.408;2023-04-23T09:35:14;99963.16;;;21.96;47.40
69173;BME280;56280;49.662;8.408;2023-04-23T09:37:41;99920.63;;;21.31;48.44
69173;BME280;56280;49.662;8.408;2023-04-23T09:40:07;99950.78;;;21.61;48.78
69173;BME280;56280;49.662;8.408;2023-04-23T09:42:34;99952.44;;;21.69;47.95
69173;BME280;56280;49.662;8.408;2023-04-23T09:45:03;99932.66;;;21.62;47.90
69173;BME280;56280;49.662;8.408;2023-04-23T09:47:40;99932.88;;;21.74;47.63
69173;BME280;56280;49.662;8.408;2023-04-23T09:50:06;99939.09;;;21.74;47.47
69173;BME280;56280;49.662;8.408;2023-04-23T09:52:37;99949.50;;;21.44;47.80
69173;BME280;56280;49.662;8.408;2023-04-23T09:55:03;99923.75;;;21.28;48.21
69173;BME280;56280;49.662;8.408;2023-04-23T09:57:42;99948.28;;;21.46;47.70
69173;BME280;56280;49.662;8.408;2023-04-23T10:00:15;99917.69;;;21.46;47.25
69173;BME280;56280;49.662;8.408;2023-04-23T10:02:48;99942.03;;;21.39;47.36
69173;BME280;56280;49.662;8.408;2023-04-23T10:05:21;99945.16;;;21.09;49.09
69173;BME280;56280;49.662;8.408;2023-04-23T10:07:47;99909.84;;;21.04;49.29
69173;BME280;56280;49.662;8.408;2023-04-23T10:10:13;99923.53;;;21.16;48.73
69173;BME280;56280;49.662;8.408;2023-04-23T10:12:41;99909.63;;;21.26;48.46
69173;BME280;56280;49.662;8.408;2023-04-23T10:15:06;99926.66;;;21.40;47.35
69173;BME280;56280;49.662;8.408;2023-04-23T10:17:37;99910.44;;;21.26;47.87
69173;BME280;56280;49.662;8.408;2023-04-23T10:20:04;99919.38;;;21.34;48.48
69173;BME280;56280;49.662;8.408;2023-04-23T10:22:32;99911.69;;;21.30;48.44
69173;BME280;56280;49.662;8.408;2023-04-23T10:24:59;99899.44;;;21.01;48.23
69173;BME280;56280;49.662;8.408;2023-04-23T10:27:28;99913.34;;;21.18;47.86
69173;BME280;56280;49.662;8.408;2023-04-23T10:29:56;99918.13;;;21.23;48.32
69173;BME280;56280;49.662;8.408;2023-04-23T10:32:22;99910.84;;;21.17;48.36
69173;BME280;56280;49.662;8.408;2023-04-23T10:34:47;99900.47;;;21.34;48.01
69173;BME280;56280;49.662;8.408;2023-04-23T10:37:13;99902.34;;;21.46;48.98
69173;BME280;56280;49.662;8.408;2023-04-23T10:39:42;99910.03;;;21.56;47.03
69173;BME280;56280;49.662;8.408;2023-04-23T10:42:08;99883.63;;;21.52;46.55
69173;BME280;56280;49.662;8.408;2023-04-23T10:44:40;99872.97;;;21.77;46.90
69173;BME280;56280;49.662;8.408;2023-04-23T10:47:11;99897.47;;;21.89;46.60
69173;BME280;56280;49.662;8.408;2023-04-23T10:49:37;99867.59;;;21.63;46.66
69173;BME280;56280;49.662;8.408;2023-04-23T10:52:03;99888.34;;;21.90;46.09
69173;BME280;56280;49.662;8.408;2023-04-23T10:54:32;99887.88;;;21.93;46.27
69173;BME280;56280;49.662;8.408;2023-04-23T10:57:05;99882.28;;;21.88;46.98
69173;BME280;56280;49.662;8.408;2023-04-23T10:59:32;99862.63;;;21.54;45.94
69173;BME280;56280;49.662;8.408;2023-04-23T11:02:06;99891.09;;;21.36;46.06
69173;BME280;56280;49.662;8.408;2023-04-23T11:04:33;99886.31;;;21.65;46.08
69173;BME280;56280;49.662;8.408;2023-04-23T11:07:06;99887.56;;;21.56;45.86
69173;BME280;56280;49.662;8.408;2023-04-23T11:12:01;99882.38;;;21.61;45.49
69173;BME280;56280;49.662;8.408;2023-04-23T11:14:47;99851.63;;;21.42;45.57
69173;BME280;56280;49.662;8.408;2023-04-23T11:17:20;99866.16;;;21.47;45.69
69173;BME280;56280;49.662;8.408;2023-04-23T11:20:10;99865.09;;;21.62;45.90
69173;BME280;56280;49.662;8.408;2023-04-23T11:22:47;99854.94;;;21.51;45.23
69173;BME280;56280;49.662;8.408;2023-04-23T11:25:26;99832.88;;;21.67;45.28
69173;BME280;56280;49.662;8.408;2023-04-23T11:27:54;99855.81;;;22.03;43.48
69173;BME280;56280;49.662;8.408;2023-04-23T11:30:24;99842.81;;;22.18;44.20
69173;BME280;56280;49.662;8.408;2023-04-23T11:32:52;99850.72;;;22.33;43.41
69173;BME280;56280;49.662;8.408;2023-04-23T11:35:20;99826.41;;;21.68;44.05
69173;BME280;56280;49.662;8.408;2023-04-23T11:37:46;99828.72;;;21.44;43.51
69173;BME280;56280;49.662;8.408;2023-04-23T11:40:16;99824.38;;;21.57;43.55
69173;BME280;56280;49.662;8.408;2023-04-23T11:42:49;99811.00;;;21.82;42.61
69173;BME280;56280;49.662;8.408;2023-04-23T11:45:20;99827.75;;;21.97;42.91
69173;BME280;56280;49.662;8.408;2023-04-23T11:47:47;99825.91;;;21.98;43.52
69173;BME280;56280;49.662;8.408;2023-04-23T11:50:18;99825.53;;;21.81;43.06
69173;BME280;56280;49.662;8.408;2023-04-23T11:52:44;99827.22;;;21.68;43.11
69173;BME280;56280;49.662;8.408;2023-04-23T11:55:09;99817.69;;;21.66;43.34
69173;BME280;56280;49.662;8.408;2023-04-23T11:57:36;99823.69;;;21.75;42.41
69173;BME280;56280;49.662;8.408;2023-04-23T12:00:21;99794.88;;;21.48;41.49
69173;BME280;56280;49.662;8.408;2023-04-23T12:02:57;99797.03;;;21.85;41.32
69173;BME280;56280;49.662;8.408;2023-04-23T12:05:28;99776.31;;;21.72;41.60
69173;BME280;56280;49.662;8.408;2023-04-23T12:07:54;99800.44;;;22.06;42.04
69173;BME280;56280;49.662;8.408;2023-04-23T12:10:30;99781.72;;;22.11;41.53
69173;BME280;56280;49.662;8.408;2023-04-23T12:12:57;99782.66;;;21.84;40.75
69173;BME280;56280;49.662;8.408;2023-04-23T12:15:22;99763.81;;;21.71;41.19
69173;BME280;56280;49.662;8.408;2023-04-23T12:17:49;99757.66;;;21.51;40.77
69173;BME280;56280;49.662;8.408;2023-04-23T12:20:17;99762.38;;;21.68;42.07
69173;BME280;56280;49.662;8.408;2023-04-23T12:22:42;99759.84;;;21.80;41.47
69173;BME280;56280;49.662;8.408;2023-04-23T12:25:08;99759.03;;;21.73;41.58
69173;BME280;56280;49.662;8.408;2023-04-23T12:27:38;99755.16;;;21.56;41.78
69173;BME280;56280;49.662;8.408;2023-04-23T12:30:04;99759.88;;;21.74;41.62
69173;BME280;56280;49.662;8.408;2023-04-23T12:32:32;99749.56;;;21.51;42.24
69173;BME280;56280;49.662;8.408;2023-04-23T12:34:58;99752.75;;;21.79;41.09
69173;BME280;56280;49.662;8.408;2023-04-23T12:37:25;99750.91;;;22.12;39.84
69173;BME280;56280;49.662;8.408;2023-04-23T12:39:51;99746.03;;;22.27;39.53
69173;BME280;56280;49.662;8.408;2023-04-23T12:42:17;99727.56;;;22.17;39.39
69173;BME280;56280;49.662;8.408;2023-04-23T12:44:43;99729.22;;;21.87;40.05
69173;BME280;56280;49.662;8.408;2023-04-23T12:47:09;99736.38;;;22.06;40.19
69173;BME280;56280;49.662;8.408;2023-04-23T12:49:37;99735.81;;;21.97;40.00
69173;BME280;56280;49.662;8.408;2023-04-23T12:52:03;99733.22;;;21.77;39.95
69173;BME280;56280;49.662;8.408;2023-04-23T12:54:33;99712.59;;;21.83;40.29